Time;durP1;ratioP1;P1;durP2;ratioP2;P2;SDS_P1;SDS_P2;PMS_P1;PMS_P2;Temp;Humidity;BMP_temperature;BMP_pressure;BME280_temperature;BME280_humidity;BME280_pressure;Samples;Min_cycle;Max_cycle;Signal;HPM_P1;HPM_P2
2022/05/09 00:02:12;;;;;;;12.85;4.00;;;6.60;99.90;;;;;;4938053;29;20071;-79
2022/05/09 00:04:38;;;;;;;9.80;2.83;;;6.60;99.90;;;;;;4927893;29;20103;-79
2022/05/09 00:07:04;;;;;;;14.35;4.72;;;6.50;99.90;;;;;;4927576;29;20060;-79
2022/05/09 00:09:31;;;;;;;12.93;4.05;;;6.50;99.90;;;;;;4926478;29;20040;-79
2022/05/09 00:11:58;;;;;;;11.10;3.92;;;6.40;99.90;;;;;;4907035;29;20044;-79
2022/05/09 00:14:23;;;;;;;9.05;3.65;;;6.40;99.90;;;;;;4919778;29;20079;-79
2022/05/09 00:16:51;;;;;;;11.70;3.30;;;6.40;99.90;;;;;;4918722;29;20130;-79
2022/05/09 00:19:20;;;;;;;11.48;4.45;;;6.30;99.90;;;;;;4928666;29;20055;-79
2022/05/09 00:21:47;;;;;;;17.83;3.88;;;6.30;99.90;;;;;;4928838;29;20039;-79
2022/05/09 00:24:15;;;;;;;8.07;2.83;;;6.30;99.90;;;;;;4918125;29;20036;-79
2022/05/09 00:26:48;;;;;;;6.97;3.00;;;6.20;99.90;;;;;;4917168;29;20044;-79
2022/05/09 00:29:15;;;;;;;10.43;3.58;;;6.20;99.90;;;;;;4927110;29;20042;-79
2022/05/09 00:31:45;;;;;;;21.00;5.00;;;6.10;99.90;;;;;;4929729;29;20051;-79
2022/05/09 00:34:12;;;;;;;12.55;5.03;;;6.10;99.90;;;;;;4910163;29;20040;-79
2022/05/09 00:36:39;;;;;;;12.73;2.95;;;6.10;99.90;;;;;;4915111;29;20190;-79
2022/05/09 00:39:05;;;;;;;11.32;4.28;;;6.10;99.90;;;;;;4920528;29;20052;-78
2022/05/09 00:41:34;;;;;;;9.27;3.83;;;6.00;99.90;;;;;;4920170;29;20039;-79
2022/05/09 00:44:05;;;;;;;9.98;3.95;;;6.00;99.90;;;;;;4917715;29;20418;-79
2022/05/09 00:46:31;;;;;;;7.18;2.67;;;5.90;99.90;;;;;;4915860;29;20032;-79
2022/05/09 00:49:15;;;;;;;8.95;2.85;;;5.80;99.90;;;;;;4926238;29;20096;-79
2022/05/09 00:51:43;;;;;;;12.48;3.20;;;5.80;99.90;;;;;;4938240;29;20394;-79
2022/05/09 00:54:09;;;;;;;10.25;3.67;;;5.80;99.90;;;;;;4932305;29;20119;-79
2022/05/09 00:56:46;;;;;;;18.90;4.95;;;5.80;99.90;;;;;;4918408;29;20048;-79
2022/05/09 00:59:16;;;;;;;9.80;3.63;;;5.70;99.90;;;;;;4916858;29;20044;-79
2022/05/09 01:01:41;;;;;;;9.23;3.85;;;5.80;99.90;;;;;;4931611;29;20027;-79
2022/05/09 01:04:07;;;;;;;9.48;3.17;;;5.70;99.90;;;;;;4917217;29;20040;-79
2022/05/09 01:06:33;;;;;;;9.35;3.42;;;5.70;99.90;;;;;;4906449;29;20119;-79
2022/05/09 01:08:58;;;;;;;12.05;4.05;;;5.70;99.90;;;;;;4931218;29;20032;-79
2022/05/09 01:11:26;;;;;;;5.70;2.40;;;5.70;99.90;;;;;;4930435;29;20095;-79
2022/05/09 01:13:57;;;;;;;5.75;3.15;;;5.70;99.90;;;;;;4919305;29;20131;-79
2022/05/09 01:16:25;;;;;;;11.40;4.35;;;5.70;99.90;;;;;;4924897;29;20191;-79
2022/05/09 01:18:52;;;;;;;14.80;4.00;;;5.70;99.90;;;;;;4922539;29;20039;-79
2022/05/09 01:21:37;;;;;;;11.88;4.35;;;5.70;99.90;;;;;;4931368;29;20039;-78
2022/05/09 01:24:04;;;;;;;8.40;2.95;;;5.70;99.90;;;;;;4923458;29;20268;-79
2022/05/09 01:26:30;;;;;;;10.25;4.43;;;5.70;99.90;;;;;;4929327;29;20028;-79
2022/05/09 01:29:01;;;;;;;11.55;3.97;;;5.70;99.90;;;;;;4921613;29;20385;-79
2022/05/09 01:31:27;;;;;;;12.77;3.92;;;5.70;99.90;;;;;;4898531;29;20036;-79
2022/05/09 01:33:53;;;;;;;6.63;3.10;;;5.70;99.90;;;;;;4915089;29;20040;-79
2022/05/09 01:36:28;;;;;;;9.90;4.22;;;5.70;99.90;;;;;;4914441;29;20036;-79
2022/05/09 01:38:58;;;;;;;11.98;3.72;;;5.70;99.90;;;;;;4915016;29;20040;-79
2022/05/09 01:41:25;;;;;;;14.35;4.78;;;5.60;99.90;;;;;;4917293;29;20043;-80
2022/05/09 01:43:55;;;;;;;11.18;4.22;;;5.60;99.90;;;;;;4915412;29;20427;-79
2022/05/09 01:46:28;;;;;;;9.43;3.22;;;5.60;99.90;;;;;;4914502;29;20385;-79
2022/05/09 01:51:40;;;;;;;12.68;4.75;;;5.60;99.90;;;;;;4920524;29;20048;-79
2022/05/09 01:54:06;;;;;;;14.07;4.43;;;5.60;99.90;;;;;;4930386;29;20126;-78
2022/05/09 01:56:34;;;;;;;15.10;5.85;;;5.60;99.90;;;;;;4914244;29;20110;-79
2022/05/09 01:59:01;;;;;;;11.27;3.95;;;5.60;99.90;;;;;;4913860;29;20500;-79
2022/05/09 02:01:29;;;;;;;10.02;4.00;;;5.60;99.90;;;;;;4923805;29;20039;-79
2022/05/09 02:03:55;;;;;;;14.27;4.18;;;5.50;99.90;;;;;;4914801;29;20052;-79
2022/05/09 02:06:21;;;;;;;11.90;4.18;;;5.50;99.90;;;;;;4914360;29;20507;-79
2022/05/09 02:08:47;;;;;;;9.18;3.63;;;5.50;99.90;;;;;;4928227;29;20039;-79
2022/05/09 02:11:13;;;;;;;9.77;3.50;;;5.50;99.90;;;;;;4924935;29;20040;-78
2022/05/09 02:13:39;;;;;;;10.95;3.92;;;5.50;99.90;;;;;;4934182;28;20048;-79
2022/05/09 02:16:05;;;;;;;8.90;3.20;;;5.50;99.90;;;;;;4921093;29;20067;-79
2022/05/09 02:18:32;;;;;;;13.32;5.38;;;5.50;99.90;;;;;;4937090;29;20043;-79
2022/05/09 02:20:58;;;;;;;11.77;3.80;;;5.50;99.90;;;;;;4925783;29;20032;-79
2022/05/09 02:23:24;;;;;;;9.52;4.30;;;5.50;99.90;;;;;;4917944;29;20044;-79
2022/05/09 02:25:49;;;;;;;11.88;4.50;;;5.50;99.90;;;;;;4909374;29;20044;-79
2022/05/09 02:28:15;;;;;;;10.93;4.95;;;5.50;99.90;;;;;;4929303;29;20571;-79
2022/05/09 02:30:41;;;;;;;13.73;4.70;;;5.40;99.90;;;;;;4925233;29;20039;-79
2022/05/09 02:33:09;;;;;;;8.20;4.28;;;5.40;99.90;;;;;;4932791;29;20036;-79
2022/05/09 02:35:36;;;;;;;19.55;5.72;;;5.40;99.90;;;;;;4913961;29;20044;-79
2022/05/09 02:38:03;;;;;;;14.10;5.40;;;5.40;99.90;;;;;;4913748;29;20044;-79
2022/05/09 02:40:29;;;;;;;11.60;5.32;;;5.30;99.90;;;;;;4915033;29;20035;-79
2022/05/09 02:42:57;;;;;;;11.77;4.32;;;5.30;99.90;;;;;;4955497;23;20052;-79
2022/05/09 02:45:23;;;;;;;12.50;5.05;;;5.20;99.90;;;;;;4914517;29;20040;-79
2022/05/09 02:47:49;;;;;;;16.45;4.93;;;5.20;99.90;;;;;;4901992;29;20036;-79
2022/05/09 02:50:16;;;;;;;11.55;4.70;;;5.20;99.90;;;;;;4919022;29;20473;-79
2022/05/09 02:52:42;;;;;;;9.60;4.63;;;5.20;99.90;;;;;;4917829;29;20056;-79
2022/05/09 02:55:10;;;;;;;10.45;4.60;;;5.10;99.90;;;;;;4914889;29;20080;-79
2022/05/09 02:57:36;;;;;;;11.18;3.42;;;5.00;99.90;;;;;;4914904;29;20051;-79
2022/05/09 03:00:18;;;;;;;11.05;4.28;;;5.00;99.90;;;;;;4914849;29;20048;-79
2022/05/09 03:04:38;;;;;;;10.38;4.72;;;5.00;99.90;;;;;;4921796;29;20088;-79
2022/05/09 03:05:30;;;;;;;;;;;5.00;99.90;;;;;;4915769;29;20052;-79
2022/05/09 03:07:56;;;;;;;;;;;4.90;99.90;;;;;;4902937;29;20444;-79
2022/05/09 03:10:23;;;;;;;5.22;3.97;;;4.90;99.90;;;;;;4925647;29;19923;-79
2022/05/09 03:12:50;;;;;;;14.43;5.75;;;4.80;99.90;;;;;;4922394;29;20043;-79
2022/05/09 03:15:16;;;;;;;11.43;5.63;;;4.80;99.90;;;;;;4899160;29;20079;-78
2022/05/09 03:17:41;;;;;;;12.63;5.43;;;4.70;99.90;;;;;;4914558;29;20363;-78
2022/05/09 03:20:08;;;;;;;18.02;5.68;;;4.70;99.90;;;;;;4919659;29;20060;-79
2022/05/09 03:22:34;;;;;;;9.98;4.00;;;4.70;99.90;;;;;;4926596;29;20044;-79
2022/05/09 03:24:59;;;;;;;11.40;4.83;;;4.60;99.90;;;;;;4930646;29;20055;-79
2022/05/09 03:27:25;;;;;;;11.07;5.23;;;4.50;99.90;;;;;;4932888;29;20096;-78
2022/05/09 03:29:50;;;;;;;10.95;5.32;;;4.40;99.90;;;;;;4917177;29;20048;-78
2022/05/09 03:32:16;;;;;;;11.15;4.15;;;4.40;99.90;;;;;;4946461;29;20032;-78
2022/05/09 03:34:42;;;;;;;13.73;4.73;;;4.30;99.90;;;;;;4931435;29;20044;-78
2022/05/09 03:37:08;;;;;;;9.57;4.30;;;4.30;99.90;;;;;;4930328;29;20052;-78
2022/05/09 03:39:33;;;;;;;13.93;5.23;;;4.30;99.90;;;;;;4906181;29;20040;-78
2022/05/09 03:41:59;;;;;;;10.95;4.88;;;4.30;99.90;;;;;;4921190;29;20040;-78
2022/05/09 03:44:24;;;;;;;13.40;4.70;;;4.30;99.90;;;;;;4916792;29;20138;-78
2022/05/09 03:46:50;;;;;;;12.77;6.70;;;4.30;99.90;;;;;;4917180;29;20399;-78
2022/05/09 03:49:15;;;;;;;7.63;3.33;;;4.30;99.90;;;;;;4915874;29;20036;-78
2022/05/09 03:51:41;;;;;;;9.95;4.38;;;4.40;99.90;;;;;;4919447;29;20059;-78
2022/05/09 03:54:07;;;;;;;10.57;4.07;;;4.40;99.90;;;;;;4919666;29;20056;-78
2022/05/09 03:56:32;;;;;;;7.80;3.13;;;4.40;99.90;;;;;;4919763;29;20043;-78
2022/05/09 03:58:58;;;;;;;11.00;3.80;;;4.50;99.90;;;;;;4924743;29;20132;-78
2022/05/09 04:01:23;;;;;;;12.30;4.90;;;4.50;99.90;;;;;;4908480;29;20119;-78
2022/05/09 04:03:49;;;;;;;9.98;3.97;;;4.50;99.90;;;;;;4922410;29;20124;-78
2022/05/09 04:06:14;;;;;;;8.02;4.22;;;4.60;99.90;;;;;;4918476;29;20048;-79
2022/05/09 04:08:40;;;;;;;10.13;5.30;;;4.70;99.90;;;;;;4921039;29;20039;-77
2022/05/09 04:11:05;;;;;;;11.47;4.57;;;4.70;99.90;;;;;;4920457;29;20046;-77
2022/05/09 04:13:31;;;;;;;17.25;5.05;;;4.70;99.90;;;;;;4926126;29;20056;-77
2022/05/09 04:18:43;;;;;;;13.98;5.75;;;4.80;99.90;;;;;;4916302;29;20044;-77
2022/05/09 04:21:10;;;;;;;12.13;5.00;;;4.90;99.90;;;;;;4921517;29;20040;-77
2022/05/09 04:23:37;;;;;;;13.38;5.00;;;4.90;99.90;;;;;;4927361;29;20040;-77
2022/05/09 04:26:05;;;;;;;16.75;5.57;;;5.00;99.90;;;;;;4900005;29;20482;-77
2022/05/09 04:28:31;;;;;;;10.88;5.55;;;5.10;99.90;;;;;;4915915;29;20075;-77
2022/05/09 04:30:57;;;;;;;12.35;6.88;;;5.10;99.90;;;;;;4921400;29;20035;-76
2022/05/09 04:33:22;;;;;;;14.50;5.63;;;5.10;99.90;;;;;;4930784;29;20307;-77
2022/05/09 04:35:48;;;;;;;10.15;4.43;;;5.20;99.90;;;;;;4899908;29;20116;-77
2022/05/09 04:38:17;;;;;;;8.77;4.60;;;5.20;99.90;;;;;;4899842;29;20052;-76
2022/05/09 04:40:43;;;;;;;11.05;4.32;;;5.10;99.90;;;;;;4915131;29;20036;-77
2022/05/09 04:43:09;;;;;;;12.77;4.80;;;5.10;99.90;;;;;;4916768;29;20047;-76
2022/05/09 04:45:35;;;;;;;11.48;4.88;;;5.10;99.90;;;;;;4915393;29;20091;-76
2022/05/09 04:48:01;;;;;;;8.63;5.43;;;5.10;99.90;;;;;;4915801;29;20391;-76
2022/05/09 04:50:28;;;;;;;12.35;6.40;;;5.10;99.90;;;;;;4918897;29;20549;-76
2022/05/09 04:52:54;;;;;;;11.55;6.03;;;5.20;99.90;;;;;;4918717;29;20032;-76
2022/05/09 04:55:20;;;;;;;13.32;5.75;;;5.20;99.90;;;;;;4915673;29;20456;-78
2022/05/09 04:57:49;;;;;;;17.90;6.72;;;5.30;99.90;;;;;;4908566;29;20048;-77
2022/05/09 05:00:17;;;;;;;11.70;5.47;;;5.40;99.90;;;;;;4900468;29;20036;-77
2022/05/09 05:02:43;;;;;;;16.58;6.32;;;5.50;99.90;;;;;;4920457;29;20040;-77
2022/05/09 05:05:09;;;;;;;14.25;5.68;;;5.60;99.90;;;;;;4900115;29;20040;-77
2022/05/09 05:07:35;;;;;;;15.98;6.95;;;5.70;99.90;;;;;;4915854;29;20447;-78
2022/05/09 05:10:01;;;;;;;11.52;5.63;;;5.80;99.90;;;;;;4920928;29;20067;-78
2022/05/09 05:12:27;;;;;;;23.05;8.40;;;5.90;99.90;;;;;;4921234;29;20419;-77
2022/05/09 05:14:52;;;;;;;12.50;5.72;;;6.10;99.90;;;;;;4914861;29;20047;-77
2022/05/09 05:17:18;;;;;;;13.70;8.10;;;6.20;99.90;;;;;;4899360;29;20096;-77
2022/05/09 05:19:44;;;;;;;19.13;7.03;;;6.30;99.90;;;;;;4914807;29;20180;-77
2022/05/09 05:22:15;;;;;;;15.48;6.43;;;6.30;99.90;;;;;;4914754;29;20090;-77
2022/05/09 05:24:44;;;;;;;16.20;7.55;;;6.50;99.90;;;;;;4914880;29;20052;-77
2022/05/09 05:27:11;;;;;;;18.67;7.85;;;6.50;99.90;;;;;;4914779;29;20051;-77
2022/05/09 05:29:37;;;;;;;16.95;7.10;;;6.60;99.90;;;;;;4915092;29;20040;-77
2022/05/09 05:32:21;;;;;;;9.63;5.80;;;6.80;99.90;;;;;;4914755;29;20338;-77
2022/05/09 05:34:48;;;;;;;16.20;7.45;;;6.90;99.90;;;;;;4914810;29;20184;-77
2022/05/09 05:37:15;;;;;;;13.80;7.00;;;7.00;99.90;;;;;;4914523;29;20044;-77
2022/05/09 05:39:42;;;;;;;13.48;7.63;;;7.10;99.90;;;;;;4914559;29;20044;-78
2022/05/09 05:42:08;;;;;;;21.40;7.85;;;7.20;99.90;;;;;;4914315;29;20040;-77
2022/05/09 05:44:34;;;;;;;18.58;6.78;;;7.30;99.90;;;;;;4899347;29;20387;-77
2022/05/09 05:47:06;;;;;;;12.63;6.22;;;7.40;99.90;;;;;;4898804;29;20143;-78
2022/05/09 05:49:32;;;;;;;15.45;8.50;;;7.60;99.90;;;;;;4915446;29;20048;-78
2022/05/09 05:52:02;;;;;;;15.68;6.93;;;7.70;99.90;;;;;;4915756;29;20523;-78
2022/05/09 05:54:28;;;;;;;16.65;7.18;;;7.80;99.90;;;;;;4899823;29;20054;-78
2022/05/09 05:56:54;;;;;;;15.20;7.38;;;7.90;99.90;;;;;;4916394;29;20092;-78
2022/05/09 05:59:19;;;;;;;16.75;8.23;;;8.10;99.90;;;;;;4915949;29;20513;-78
2022/05/09 06:01:45;;;;;;;15.43;6.57;;;8.20;99.90;;;;;;4916207;29;20060;-77
2022/05/09 06:04:10;;;;;;;16.58;6.80;;;8.40;99.90;;;;;;4915065;29;20127;-78
2022/05/09 06:06:36;;;;;;;16.13;6.63;;;8.50;99.90;;;;;;4916293;29;20131;-78
2022/05/09 06:09:01;;;;;;;18.20;6.13;;;8.60;99.90;;;;;;4914827;29;20119;-79
2022/05/09 06:11:27;;;;;;;14.00;6.82;;;8.80;99.90;;;;;;4915812;29;20040;-78
2022/05/09 06:13:56;;;;;;;19.73;7.00;;;8.90;99.90;;;;;;4915426;29;20051;-78
2022/05/09 06:16:21;;;;;;;14.63;6.88;;;9.10;99.90;;;;;;4913523;29;20118;-77
2022/05/09 06:18:51;;;;;;;17.05;6.80;;;9.20;99.90;;;;;;4914121;29;20036;-77
2022/05/09 06:21:17;;;;;;;10.43;4.97;;;9.30;99.90;;;;;;4914015;29;20075;-77
2022/05/09 06:23:43;;;;;;;15.48;5.97;;;9.50;99.90;;;;;;4914442;29;20052;-77
2022/05/09 06:26:09;;;;;;;12.48;5.07;;;9.60;99.90;;;;;;4913696;29;20122;-77
2022/05/09 06:28:34;;;;;;;15.05;5.35;;;9.80;99.90;;;;;;4914368;29;20097;-77
2022/05/09 06:31:01;;;;;;;12.18;4.93;;;10.00;99.90;;;;;;4914064;29;20040;-77
2022/05/09 06:33:26;;;;;;;13.38;5.13;;;10.10;99.90;;;;;;4898166;29;20040;-77
2022/05/09 06:35:53;;;;;;;14.38;5.95;;;10.30;99.90;;;;;;4913699;29;20044;-77
2022/05/09 06:38:19;;;;;;;12.60;5.18;;;10.40;99.90;;;;;;4913790;29;20095;-78
2022/05/09 06:40:45;;;;;;;10.23;4.78;;;10.60;99.90;;;;;;4913617;29;20544;-77
2022/05/09 06:43:11;;;;;;;8.85;4.40;;;10.70;99.90;;;;;;4914165;29;20413;-78
2022/05/09 06:45:37;;;;;;;18.45;6.43;;;10.90;99.90;;;;;;4913217;29;20040;-77
2022/05/09 06:48:03;;;;;;;11.68;4.53;;;11.10;99.90;;;;;;4913869;29;20036;-78
2022/05/09 06:50:31;;;;;;;11.95;4.28;;;11.40;99.90;;;;;;4913806;29;20036;-78
2022/05/09 06:52:58;;;;;;;9.88;5.07;;;11.70;99.90;;;;;;4914040;29;20059;-78
2022/05/09 06:55:24;;;;;;;11.27;4.57;;;11.90;99.90;;;;;;4913890;29;20081;-77
2022/05/09 06:57:49;;;;;;;17.45;4.93;;;12.20;99.90;;;;;;4914214;29;20040;-77
2022/05/09 07:00:21;;;;;;;8.88;3.53;;;12.50;99.90;;;;;;4913939;29;20150;-78
2022/05/09 07:02:47;;;;;;;12.98;3.42;;;12.70;99.90;;;;;;4913571;29;20047;-77
2022/05/09 07:05:17;;;;;;;11.75;3.80;;;13.00;99.90;;;;;;4913467;29;20055;-76
2022/05/09 07:07:44;;;;;;;14.35;4.13;;;13.20;99.90;;;;;;4913063;29;20139;-77
2022/05/09 07:10:12;;;;;;;10.45;3.85;;;13.40;99.90;;;;;;4913358;29;20044;-76
2022/05/09 07:12:46;;;;;;;10.43;4.55;;;13.60;99.90;;;;;;4913341;29;20055;-76
2022/05/09 07:15:14;;;;;;;8.40;3.38;;;13.70;99.90;;;;;;4913536;29;20040;-76
2022/05/09 07:17:39;;;;;;;10.55;3.58;;;13.80;99.90;;;;;;4913646;29;20059;-77
2022/05/09 07:20:06;;;;;;;12.30;3.83;;;13.90;99.90;;;;;;4914138;29;20043;-78
2022/05/09 07:22:31;;;;;;;11.07;3.58;;;14.10;99.90;;;;;;4913951;29;20048;-78
2022/05/09 07:24:57;;;;;;;8.90;3.13;;;14.20;99.90;;;;;;4915506;29;20467;-78
2022/05/09 07:27:23;;;;;;;9.40;3.65;;;14.50;99.90;;;;;;4898951;29;20044;-78
2022/05/09 07:29:48;;;;;;;8.32;3.55;;;14.60;99.90;;;;;;4917255;29;20043;-77
2022/05/09 07:32:14;;;;;;;10.30;3.10;;;14.80;99.90;;;;;;4901974;29;20048;-77
2022/05/09 07:34:39;;;;;;;8.52;3.58;;;14.90;99.90;;;;;;4902716;29;20106;-78
2022/05/09 07:37:05;;;;;;;7.47;3.42;;;15.00;99.90;;;;;;4917200;29;20131;-77
2022/05/09 07:39:31;;;;;;;9.77;3.78;;;15.00;99.90;;;;;;4917376;29;20082;-78
2022/05/09 07:41:57;;;;;;;18.40;3.42;;;15.10;99.90;;;;;;4916880;29;20083;-77
2022/05/09 07:44:22;;;;;;;13.18;3.85;;;15.30;97.30;;;;;;4917437;29;20044;-77
2022/05/09 07:46:48;;;;;;;8.32;3.75;;;15.50;97.70;;;;;;4916515;29;20040;-75
2022/05/09 07:49:14;;;;;;;7.55;3.65;;;15.60;95.10;;;;;;4917358;29;20040;-75
2022/05/09 07:51:40;;;;;;;7.15;4.13;;;15.80;94.60;;;;;;4917430;29;20124;-75
2022/05/09 07:54:06;;;;;;;13.13;3.72;;;15.90;94.30;;;;;;4916164;29;20052;-75
2022/05/09 07:56:32;;;;;;;22.17;6.30;;;16.10;93.40;;;;;;4916416;29;20052;-75
2022/05/09 07:58:59;;;;;;;12.93;3.78;;;16.30;92.40;;;;;;4917460;29;20119;-75
2022/05/09 08:01:25;;;;;;;8.55;2.92;;;16.60;91.40;;;;;;4916212;29;20080;-76
2022/05/09 08:03:50;;;;;;;14.52;4.28;;;16.80;88.60;;;;;;4916258;29;20211;-76
2022/05/09 08:06:16;;;;;;;5.80;2.88;;;17.10;87.10;;;;;;4917111;29;20128;-76
2022/05/09 08:08:43;;;;;;;9.48;3.15;;;17.20;82.60;;;;;;4916578;29;20131;-76
2022/05/09 08:11:11;;;;;;;6.15;2.88;;;17.10;82.70;;;;;;4915925;29;20111;-76
2022/05/09 08:13:39;;;;;;;7.30;2.97;;;17.20;81.70;;;;;;4916494;29;20040;-76
2022/05/09 08:16:06;;;;;;;10.98;3.40;;;17.40;80.40;;;;;;4918221;29;20040;-76
2022/05/09 08:18:33;;;;;;;6.30;2.92;;;17.60;79.80;;;;;;4903666;29;20036;-76
2022/05/09 08:21:00;;;;;;;4.88;3.10;;;17.80;77.20;;;;;;4917805;29;20060;-76
2022/05/09 08:23:27;;;;;;;6.72;2.75;;;17.60;74.50;;;;;;4910393;29;20055;-76
2022/05/09 08:25:55;;;;;;;7.20;3.45;;;17.60;74.30;;;;;;4917290;29;20491;-76
2022/05/09 08:28:21;;;;;;;9.82;3.35;;;17.80;74.50;;;;;;4900396;29;20503;-76
2022/05/09 08:30:48;;;;;;;9.18;3.00;;;18.00;74.40;;;;;;4916457;29;20036;-75
2022/05/09 08:33:17;;;;;;;8.52;3.20;;;18.20;72.60;;;;;;4916075;29;20054;-76
2022/05/09 08:35:48;;;;;;;9.27;3.47;;;18.50;70.60;;;;;;4916303;29;20055;-76
2022/05/09 08:38:15;;;;;;;10.65;3.42;;;18.70;68.80;;;;;;4916796;29;20055;-76
2022/05/09 08:41:12;;;;;;;11.75;3.67;;;18.90;69.90;;;;;;4915648;29;20112;-76
2022/05/09 08:43:59;;;;;;;10.82;2.88;;;19.20;67.00;;;;;;4917083;29;20042;-76
2022/05/09 08:46:38;;;;;;;11.75;2.80;;;19.40;66.80;;;;;;4915211;29;20051;-76
2022/05/09 08:49:41;;;;;;;10.13;3.83;;;19.80;65.10;;;;;;4915373;29;20159;-76
2022/05/09 08:52:29;;;;;;;6.10;2.08;;;19.90;62.60;;;;;;4911640;29;20048;-76
2022/05/09 08:54:55;;;;;;;7.68;3.00;;;20.00;62.20;;;;;;4909889;29;20040;-76
2022/05/09 08:57:24;;;;;;;6.63;2.22;;;20.00;61.70;;;;;;4914838;29;20133;-76
2022/05/09 08:59:58;;;;;;;5.60;3.55;;;20.00;61.50;;;;;;4915047;29;20054;-76
2022/05/09 09:02:44;;;;;;;10.73;3.53;;;20.20;60.30;;;;;;4914428;29;20032;-76
2022/05/09 09:05:13;;;;;;;8.23;2.50;;;20.50;58.30;;;;;;4915005;29;20048;-77
2022/05/09 09:07:48;;;;;;;6.93;2.22;;;20.70;59.50;;;;;;4914468;29;20487;-76
2022/05/09 09:10:35;;;;;;;7.07;2.50;;;20.80;57.80;;;;;;4915009;29;20040;-76
2022/05/09 09:13:24;;;;;;;7.10;1.95;;;20.80;58.30;;;;;;4908757;29;20111;-77
2022/05/09 09:16:19;;;;;;;9.10;2.45;;;20.90;58.00;;;;;;4906740;29;20079;-77
2022/05/09 09:19:24;;;;;;;12.93;3.00;;;21.20;58.50;;;;;;4914345;29;20183;-77
2022/05/09 09:21:58;;;;;;;6.63;2.65;;;21.60;54.20;;;;;;4914672;29;20527;-77
2022/05/09 09:24:46;;;;;;;9.75;3.95;;;21.60;54.70;;;;;;4914976;29;20052;-77
2022/05/09 09:27:40;;;;;;;9.93;2.50;;;21.60;54.10;;;;;;4914165;29;20051;-77
2022/05/09 09:30:13;;;;;;;6.93;2.40;;;21.80;52.40;;;;;;4908170;29;20048;-77
2022/05/09 09:32:42;;;;;;;9.13;1.92;;;22.20;53.80;;;;;;4914368;29;20123;-77
2022/05/09 09:35:36;;;;;;;16.50;4.05;;;22.60;52.80;;;;;;4914530;29;20055;-77
2022/05/09 09:38:08;;;;;;;9.52;2.92;;;22.70;50.00;;;;;;4907249;29;20060;-77
2022/05/09 09:40:33;;;;;;;9.65;2.33;;;22.70;50.90;;;;;;4914671;29;20048;-77
2022/05/09 09:42:59;;;;;;;11.95;1.95;;;22.70;50.50;;;;;;4914013;29;20086;-77
2022/05/09 09:45:33;;;;;;;10.77;2.30;;;22.80;50.60;;;;;;4915494;29;20047;-77
2022/05/09 09:48:14;;;;;;;4.05;1.60;;;23.00;50.10;;;;;;4913742;29;20103;-77
2022/05/09 09:50:56;;;;;;;4.55;2.05;;;23.20;48.50;;;;;;4913689;29;20099;-77
2022/05/09 09:53:57;;;;;;;8.45;2.72;;;23.30;49.00;;;;;;4908750;29;20058;-77
2022/05/09 09:56:22;;;;;;;8.00;1.70;;;23.50;48.50;;;;;;4908345;29;20051;-78
2022/05/09 09:58:50;;;;;;;8.20;1.75;;;23.60;50.10;;;;;;4913891;29;20036;-78
2022/05/09 10:01:25;;;;;;;4.40;1.30;;;23.70;49.60;;;;;;4914075;29;20043;-78
2022/05/09 10:04:27;;;;;;;5.13;1.67;;;23.80;49.50;;;;;;4913683;29;20047;-78
2022/05/09 10:07:12;;;;;;;5.25;2.25;;;23.80;47.30;;;;;;4903845;29;20103;-78
2022/05/09 10:09:43;;;;;;;4.18;1.17;;;23.90;49.60;;;;;;4915203;29;20115;-78
2022/05/09 10:12:22;;;;;;;9.07;1.30;;;23.90;48.70;;;;;;4913776;29;20059;-78
2022/05/09 10:14:48;;;;;;;9.15;2.22;;;24.20;47.90;;;;;;4914026;29;20048;-79
2022/05/09 10:17:31;;;;;;;6.45;1.30;;;24.40;47.50;;;;;;4914496;29;20044;-78
2022/05/09 10:20:00;;;;;;;5.72;1.10;;;24.50;47.80;;;;;;4912631;29;20044;-78
2022/05/09 10:25:28;;;;;;;3.28;0.82;;;24.90;47.40;;;;;;4913695;29;20052;-78
2022/05/09 10:28:14;;;;;;;9.35;1.88;;;25.20;46.60;;;;;;4913627;29;20044;-76
2022/05/09 10:30:46;;;;;;;5.35;1.30;;;25.30;44.60;;;;;;4913631;29;20164;-76
2022/05/09 10:33:37;;;;;;;9.80;2.42;;;25.20;44.90;;;;;;4913548;29;20491;-78
2022/05/09 10:36:08;;;;;;;11.32;1.90;;;25.30;46.50;;;;;;4913140;29;20101;-76
2022/05/09 10:38:41;;;;;;;4.20;1.40;;;25.60;47.00;;;;;;4913437;29;20040;-76
2022/05/09 10:41:17;;;;;;;7.07;1.58;;;25.70;47.10;;;;;;4913205;29;20048;-76
2022/05/09 10:43:50;;;;;;;5.30;1.40;;;25.80;46.80;;;;;;4913439;29;20059;-76
2022/05/09 10:46:18;;;;;;;9.82;2.10;;;25.90;46.50;;;;;;4912895;29;20036;-77
2022/05/09 10:49:01;;;;;;;6.32;1.50;;;26.10;44.40;;;;;;4913719;29;20070;-76
2022/05/09 10:51:56;;;;;;;11.05;1.58;;;26.10;42.40;;;;;;4913406;29;20051;-77
2022/05/09 10:54:38;;;;;;;3.97;0.80;;;25.40;45.80;;;;;;4913523;29;20494;-77
2022/05/09 10:57:26;;;;;;;10.35;2.28;;;25.40;47.30;;;;;;4913112;29;20051;-78
2022/05/09 10:59:59;;;;;;;6.35;1.20;;;25.70;45.70;;;;;;4908588;29;20055;-77
2022/05/09 11:02:31;;;;;;;4.80;1.08;;;25.90;47.20;;;;;;4914283;29;20128;-78
2022/05/09 11:04:56;;;;;;;4.53;1.20;;;26.10;45.70;;;;;;4917578;29;20044;-78
2022/05/09 11:07:53;;;;;;;3.92;1.13;;;26.40;44.10;;;;;;4916646;29;20099;-78
2022/05/09 11:10:39;;;;;;;4.47;1.10;;;26.40;42.50;;;;;;4917064;29;20076;-78
2022/05/09 11:13:14;;;;;;;6.80;1.20;;;26.40;43.10;;;;;;4917514;29;20115;-77
2022/05/09 11:15:59;;;;;;;6.38;1.10;;;26.40;43.70;;;;;;4916758;29;20318;-78
2022/05/09 11:19:04;;;;;;;14.13;1.70;;;26.70;45.90;;;;;;4916779;29;20054;-78
2022/05/09 11:21:47;;;;;;;11.98;2.80;;;26.90;43.30;;;;;;4916814;29;20052;-77
2022/05/09 11:24:25;;;;;;;2.92;0.80;;;27.00;44.20;;;;;;4916663;29;20044;-78
2022/05/09 11:27:04;;;;;;;8.70;1.63;;;26.90;43.40;;;;;;4917092;29;20513;-77
2022/05/09 11:30:17;;;;;;;6.47;0.88;;;27.00;44.10;;;;;;4916626;29;20059;-78
2022/05/09 11:32:43;;;;;;;5.28;0.82;;;26.70;43.40;;;;;;4917908;29;20498;-79
2022/05/09 11:35:23;;;;;;;4.68;1.30;;;26.80;44.50;;;;;;4918683;29;20566;-79
2022/05/09 11:37:58;;;;;;;3.70;0.80;;;26.90;43.90;;;;;;4917474;29;20083;-79
2022/05/09 11:41:01;;;;;;;13.80;2.72;;;27.10;43.40;;;;;;4917688;29;20044;-80
2022/05/09 11:43:43;;;;;;;4.97;1.20;;;27.20;43.20;;;;;;4916643;29;20044;-79
2022/05/09 11:46:20;;;;;;;5.97;2.35;;;27.10;43.40;;;;;;4917709;29;20079;-79
2022/05/09 11:48:46;;;;;;;6.57;1.25;;;26.90;43.90;;;;;;4911695;29;20149;-79
2022/05/09 11:51:36;;;;;;;4.63;1.00;;;27.00;44.60;;;;;;4916638;29;20126;-79
2022/05/09 11:54:27;;;;;;;4.97;0.90;;;27.40;43.60;;;;;;4911893;29;20052;-79
2022/05/09 11:56:56;;;;;;;23.33;2.67;;;27.70;43.70;;;;;;4902261;29;20044;-79
2022/05/09 11:59:24;;;;;;;4.35;1.02;;;27.70;43.90;;;;;;4917175;29;20048;-79
2022/05/09 12:02:05;;;;;;;4.03;1.70;;;27.90;43.30;;;;;;4915884;29;20494;-79
2022/05/09 12:04:32;;;;;;;9.00;1.85;;;28.10;42.10;;;;;;4916479;29;20095;-79
2022/05/09 12:06:57;;;;;;;6.60;1.08;;;28.30;41.50;;;;;;4900927;29;20459;-80
2022/05/09 12:09:56;;;;;;;3.53;0.88;;;28.60;41.70;;;;;;4916487;29;20067;-79
2022/05/09 12:12:36;;;;;;;8.48;1.20;;;28.80;40.10;;;;;;4913472;29;20052;-78
2022/05/09 12:15:06;;;;;;;4.00;1.00;;;28.80;40.10;;;;;;4909198;29;20068;-79
2022/05/09 12:17:43;;;;;;;19.15;3.13;;;28.80;40.30;;;;;;4918092;29;20052;-78
2022/05/09 12:20:33;;;;;;;9.90;2.30;;;28.80;41.00;;;;;;4916456;29;20205;-79
2022/05/09 12:23:02;;;;;;;7.03;1.60;;;29.00;42.10;;;;;;4909370;29;20336;-79
2022/05/09 12:25:38;;;;;;;3.88;0.77;;;28.90;41.40;;;;;;4900941;29;20063;-79
2022/05/09 12:28:16;;;;;;;4.93;1.70;;;29.10;40.70;;;;;;4915989;29;20119;-79
2022/05/09 12:30:54;;;;;;;6.53;0.80;;;29.20;40.80;;;;;;4916265;29;20048;-79
2022/05/09 12:33:47;;;;;;;6.65;1.05;;;29.40;40.10;;;;;;4917275;29;20191;-79
2022/05/09 12:36:28;;;;;;;2.63;0.60;;;29.20;40.50;;;;;;4918339;29;20083;-80
2022/05/09 12:38:59;;;;;;;5.00;0.85;;;29.10;40.90;;;;;;4919578;29;20443;-80
2022/05/09 12:41:45;;;;;;;7.13;0.80;;;29.10;40.30;;;;;;4902229;29;20047;-78
2022/05/09 12:44:30;;;;;;;4.38;0.77;;;29.60;38.30;;;;;;4911439;29;20059;-79
2022/05/09 12:47:06;;;;;;;10.52;1.38;;;29.90;37.20;;;;;;4916619;29;20179;-78
2022/05/09 12:49:45;;;;;;;4.65;0.60;;;29.80;37.80;;;;;;4916246;29;20072;-79
2022/05/09 12:52:19;;;;;;;3.15;0.73;;;30.00;39.10;;;;;;4918651;29;20100;-79
2022/05/09 12:55:52;;;;;;;3.50;0.75;;;30.10;39.30;;;;;;4922396;29;20054;-79
2022/05/09 12:57:38;;;;;;;3.42;0.93;;;30.10;38.70;;;;;;4919059;29;20103;-79
2022/05/09 13:00:12;;;;;;;3.95;1.33;;;30.10;40.00;;;;;;4909684;29;20506;-79
2022/05/09 13:02:38;;;;;;;6.43;1.00;;;30.20;39.70;;;;;;4918973;29;20111;-79
2022/05/09 13:05:04;;;;;;;5.28;0.93;;;30.20;38.80;;;;;;4919453;29;20097;-79
2022/05/09 13:07:30;;;;;;;5.18;1.35;;;30.20;40.40;;;;;;4916649;29;20491;-80
2022/05/09 13:09:57;;;;;;;2.72;1.00;;;30.40;39.90;;;;;;4917861;29;20032;-79
2022/05/09 13:12:32;;;;;;;4.03;0.77;;;30.80;38.60;;;;;;4915429;29;20569;-79
2022/05/09 13:15:03;;;;;;;3.63;0.80;;;30.90;37.70;;;;;;4914884;29;20099;-79
2022/05/09 13:17:37;;;;;;;5.05;1.10;;;30.50;37.60;;;;;;4915305;29;20055;-78